Time;durP1;ratioP1;P1;durP2;ratioP2;P2;SDS_P1;SDS_P2;PMS_P1;PMS_P2;Temp;Humidity;BMP_temperature;BMP_pressure;BME280_temperature;BME280_humidity;BME280_pressure;Samples;Min_cycle;Max_cycle;Signal;HPM_P1;HPM_P2
2022/06/08 00:01:59;;;;;;;8.65;3.58;;;;;;;14.64;100.00;92772.69;5170691;27;20107;-88
2022/06/08 00:04:26;;;;;;;5.30;3.55;;;;;;;14.53;100.00;92752.94;5170869;27;20050;-88
2022/06/08 00:06:56;;;;;;;4.82;3.42;;;;;;;14.70;100.00;92778.69;5173460;27;20091;-88
2022/06/08 00:09:22;;;;;;;7.95;3.90;;;;;;;14.76;100.00;92771.78;5173327;27;20042;-88
2022/06/08 00:11:51;;;;;;;5.25;3.28;;;;;;;14.77;100.00;92766.34;5172943;27;20042;-88
2022/06/08 00:14:18;;;;;;;6.03;4.07;;;;;;;14.80;100.00;92762.50;5172965;27;20483;-90
2022/06/08 00:16:45;;;;;;;4.80;3.60;;;;;;;14.79;100.00;92761.72;5173093;27;20440;-89
2022/06/08 00:19:12;;;;;;;5.22;3.33;;;;;;;14.82;100.00;92758.63;5172963;27;20556;-88
2022/06/08 00:21:39;;;;;;;3.80;3.00;;;;;;;14.71;100.00;92746.63;5172921;27;20038;-88
2022/06/08 00:24:06;;;;;;;5.20;3.20;;;;;;;14.70;100.00;92748.44;5173017;27;20062;-89
2022/06/08 00:26:36;;;;;;;4.43;3.38;;;;;;;14.65;100.00;92740.66;5172906;27;20046;-88
2022/06/08 00:29:05;;;;;;;6.38;3.80;;;;;;;14.76;100.00;92757.03;5172826;27;20057;-88
2022/06/08 00:31:32;;;;;;;4.70;3.33;;;;;;;14.76;100.00;92748.53;5172792;27;20046;-87
2022/06/08 00:33:59;;;;;;;4.60;3.38;;;;;;;14.73;100.00;92749.75;5172772;27;20057;-88
2022/06/08 00:36:26;;;;;;;4.22;3.53;;;;;;;14.70;100.00;92753.63;5172905;27;20065;-88
2022/06/08 00:38:53;;;;;;;5.53;3.47;;;;;;;14.69;100.00;92746.09;5172878;27;20175;-88
2022/06/08 00:41:39;;;;;;;4.30;3.60;;;;;;;14.64;100.00;92744.28;5172646;27;20049;-87
2022/06/08 00:44:13;;;;;;;4.53;3.00;;;;;;;14.61;100.00;92741.38;5171348;27;20183;-87
2022/06/08 00:46:40;;;;;;;5.45;3.60;;;;;;;14.52;100.00;92751.38;5172823;27;20086;-88
2022/06/08 00:49:14;;;;;;;5.10;3.40;;;;;;;14.46;100.00;92745.41;5172541;27;20050;-87
2022/06/08 00:51:41;;;;;;;4.78;3.75;;;;;;;14.41;100.00;92743.53;5168643;27;20042;-89
2022/06/08 00:54:13;;;;;;;4.30;3.30;;;;;;;13.81;100.00;92653.13;5162242;27;20416;-87
2022/06/08 00:56:50;;;;;;;11.13;4.68;;;;;;;14.35;100.00;92733.41;5171114;27;20094;-88
2022/06/08 00:59:18;;;;;;;6.50;3.33;;;;;;;14.22;100.00;92712.13;5170004;27;20404;-88
2022/06/08 01:01:45;;;;;;;4.50;3.47;;;;;;;14.31;100.00;92738.28;5165894;27;20048;-88
2022/06/08 01:04:14;;;;;;;4.90;3.80;;;;;;;14.28;100.00;92731.03;5163150;27;20090;-88
2022/06/08 01:06:42;;;;;;;4.63;3.50;;;;;;;14.19;100.00;92728.09;5163352;27;20046;-88
2022/06/08 01:09:17;;;;;;;4.53;3.72;;;;;;;14.10;100.00;92729.53;5161744;27;20046;-87
2022/06/08 01:11:46;;;;;;;4.57;3.40;;;;;;;13.96;100.00;92717.03;5162906;27;20042;-87
2022/06/08 01:14:15;;;;;;;5.38;3.42;;;;;;;13.98;100.00;92717.56;5161430;27;20051;-87
2022/06/08 01:16:48;;;;;;;5.88;3.20;;;;;;;14.02;100.00;92723.81;5161977;27;20058;-87
2022/06/08 01:19:15;;;;;;;4.55;3.78;;;;;;;13.95;100.00;92722.44;5162274;27;20046;-88
2022/06/08 01:21:51;;;;;;;4.38;3.20;;;;;;;13.97;100.00;92721.16;5164998;27;20042;-87
2022/06/08 01:24:18;;;;;;;4.22;3.15;;;;;;;13.95;100.00;92733.53;5164732;27;20050;-87
2022/06/08 01:26:51;;;;;;;4.88;3.72;;;;;;;13.89;100.00;92729.34;5163951;27;20492;-87
2022/06/08 01:29:26;;;;;;;4.78;3.47;;;;;;;13.92;100.00;92735.84;5163823;27;20102;-87
2022/06/08 01:32:04;;;;;;;4.07;3.40;;;;;;;13.80;100.00;92726.38;5162922;27;20458;-88
2022/06/08 01:34:40;;;;;;;4.18;3.13;;;;;;;13.81;100.00;92727.19;5162271;27;20042;-87
2022/06/08 01:37:18;;;;;;;5.07;3.22;;;;;;;13.80;100.00;92736.72;5162302;27;20077;-88
2022/06/08 01:40:03;;;;;;;4.60;3.70;;;;;;;13.72;100.00;92742.31;5161874;27;20051;-88
2022/06/08 01:42:42;;;;;;;6.38;3.88;;;;;;;13.71;100.00;92738.19;5161901;27;20110;-87
2022/06/08 01:45:36;;;;;;;4.65;3.50;;;;;;;13.62;100.00;92735.25;5162227;27;20042;-88
2022/06/08 01:48:21;;;;;;;4.50;3.63;;;;;;;13.54;100.00;92739.00;5162969;27;20050;-87
2022/06/08 01:50:58;;;;;;;5.93;3.55;;;;;;;13.37;100.00;92718.38;5162268;27;20168;-88
2022/06/08 01:53:38;;;;;;;4.43;3.45;;;;;;;13.52;100.00;92735.88;5160600;27;20456;-88
2022/06/08 01:56:15;;;;;;;7.55;4.15;;;;;;;13.55;100.00;92745.72;5163013;27;20046;-87
2022/06/08 01:58:48;;;;;;;5.18;3.58;;;;;;;13.57;100.00;92745.50;5170357;27;20091;-88
2022/06/08 02:01:20;;;;;;;4.82;3.50;;;;;;;13.49;100.00;92738.94;5171533;27;20041;-88
2022/06/08 02:04:09;;;;;;;5.40;3.63;;;;;;;13.50;100.00;92732.75;5171689;27;20058;-87
2022/06/08 02:06:44;;;;;;;5.18;3.70;;;;;;;13.51;100.00;92729.16;5171435;27;20042;-88
2022/06/08 02:09:17;;;;;;;4.18;3.30;;;;;;;13.49;100.00;92731.22;5170009;27;20094;-89
2022/06/08 02:11:51;;;;;;;4.28;3.60;;;;;;;13.37;100.00;92718.38;5170502;27;20049;-88
2022/06/08 02:14:23;;;;;;;5.88;4.00;;;;;;;13.35;100.00;92710.09;5171570;27;20058;-87
2022/06/08 02:16:53;;;;;;;5.38;3.92;;;;;;;13.43;100.00;92725.16;5171304;27;20098;-88
2022/06/08 02:19:25;;;;;;;5.32;3.67;;;;;;;13.39;100.00;92718.16;5171348;27;20046;-87
2022/06/08 02:21:54;;;;;;;4.80;3.05;;;;;;;13.27;100.00;92708.72;5171777;27;20050;-88
2022/06/08 02:24:26;;;;;;;5.50;3.92;;;;;;;13.35;100.00;92710.09;5175407;27;20480;-88
2022/06/08 02:26:57;;;;;;;5.78;3.85;;;;;;;13.40;100.00;92717.91;5175444;27;20049;-87
2022/06/08 02:29:31;;;;;;;5.65;4.15;;;;;;;13.34;100.00;92711.13;5175299;27;20050;-88
2022/06/08 02:32:02;;;;;;;5.60;4.05;;;;;;;13.32;100.00;92715.72;5173476;27;20102;-88
2022/06/08 02:34:34;;;;;;;4.18;3.22;;;;;;;13.32;100.00;92720.88;5173350;27;20099;-88
2022/06/08 02:37:10;;;;;;;5.88;3.70;;;;;;;13.32;100.00;92719.09;5173716;27;20046;-87
2022/06/08 02:39:44;;;;;;;6.38;4.20;;;;;;;13.30;100.00;92717.78;5174455;27;20042;-88
2022/06/08 02:42:15;;;;;;;5.68;3.80;;;;;;;13.21;100.00;92717.41;5175021;27;20218;-87
2022/06/08 02:44:47;;;;;;;5.63;4.00;;;;;;;13.23;100.00;92723.09;5172832;27;20049;-87
2022/06/08 02:47:27;;;;;;;5.78;4.28;;;;;;;13.22;100.00;92706.06;5173455;27;20042;-88
2022/06/08 02:49:54;;;;;;;5.75;4.53;;;;;;;13.31;100.00;92716.75;5174552;27;20400;-88
2022/06/08 02:52:24;;;;;;;7.50;4.00;;;;;;;13.30;100.00;92716.00;5174765;27;20086;-86
2022/06/08 02:54:54;;;;;;;7.15;4.03;;;;;;;13.30;100.00;92720.34;5174655;27;20056;-86
2022/06/08 02:57:27;;;;;;;4.68;3.40;;;;;;;13.23;100.00;92716.16;5174530;27;20078;-86
2022/06/08 03:00:01;;;;;;;6.13;4.32;;;;;;;13.28;100.00;92715.44;5174662;27;20046;-86
2022/06/08 03:02:33;;;;;;;7.93;3.67;;;;;;;13.30;100.00;92726.31;5174623;27;20488;-86
2022/06/08 03:05:08;;;;;;;5.32;3.92;;;;;;;13.31;100.00;92724.50;5174923;27;20064;-86
2022/06/08 03:07:39;;;;;;;7.65;4.53;;;;;;;13.18;100.00;92721.25;5172818;27;20042;-87
2022/06/08 03:10:11;;;;;;;12.32;4.20;;;;;;;13.20;100.00;92719.19;5173352;27;20038;-87
2022/06/08 03:12:40;;;;;;;7.53;4.55;;;;;;;13.31;100.00;92734.81;5173344;27;20095;-87
2022/06/08 03:15:09;;;;;;;7.00;3.72;;;;;;;13.32;100.00;92737.16;5174116;27;20484;-87
2022/06/08 03:17:38;;;;;;;9.52;4.53;;;;;;;13.38;100.00;92732.84;5174400;27;20114;-87
2022/06/08 03:20:09;;;;;;;4.65;3.50;;;;;;;13.30;100.00;92713.41;5172592;27;20046;-87
2022/06/08 03:22:38;;;;;;;8.55;4.13;;;;;;;13.39;100.00;92723.31;5172959;27;20174;-87
2022/06/08 03:25:07;;;;;;;8.90;4.53;;;;;;;13.36;100.00;92722.78;5172554;27;20050;-87
2022/06/08 03:27:35;;;;;;;5.65;3.78;;;;;;;13.24;100.00;92711.75;5166367;27;20115;-86
2022/06/08 03:30:03;;;;;;;7.20;3.92;;;;;;;13.21;100.00;92717.41;5172468;27;20095;-85
2022/06/08 03:32:29;;;;;;;6.35;4.15;;;;;;;13.27;100.00;92711.28;5173585;27;20042;-87
2022/06/08 03:34:56;;;;;;;6.97;4.40;;;;;;;13.43;100.00;92721.81;5173829;27;20496;-87
2022/06/08 03:37:23;;;;;;;7.80;4.53;;;;;;;13.52;100.00;92728.13;5174019;27;20103;-86
2022/06/08 03:39:50;;;;;;;6.03;3.88;;;;;;;13.60;100.00;92730.31;5174269;27;20464;-86
2022/06/08 03:42:18;;;;;;;8.77;4.80;;;;;;;13.67;100.00;92726.75;5174000;27;20046;-86
2022/06/08 03:44:45;;;;;;;11.27;5.03;;;;;;;13.72;100.00;92735.38;5173643;27;20042;-86
2022/06/08 03:47:17;;;;;;;7.45;4.65;;;;;;;13.74;100.00;92748.00;5173525;27;20468;-86
2022/06/08 03:49:44;;;;;;;5.88;4.32;;;;;;;13.54;100.00;92720.16;5173857;27;20042;-87
2022/06/08 03:52:18;;;;;;;4.60;3.80;;;;;;;13.66;100.00;92736.28;5173739;27;20095;-87
2022/06/08 03:54:52;;;;;;;6.50;4.68;;;;;;;13.65;100.00;92739.91;5173401;27;20049;-87
2022/06/08 03:57:21;;;;;;;6.35;3.85;;;;;;;13.55;100.00;92713.97;5173662;27;20038;-86
2022/06/08 03:59:49;;;;;;;8.55;4.40;;;;;;;13.71;100.00;92735.59;5173272;27;20124;-86
2022/06/08 04:02:16;;;;;;;6.38;4.85;;;;;;;13.80;100.00;92721.22;5173622;27;20116;-86
2022/06/08 04:04:44;;;;;;;6.90;5.18;;;;;;;13.85;100.00;92721.28;5173515;27;20445;-87
2022/06/08 04:07:11;;;;;;;8.43;4.70;;;;;;;13.93;100.00;92730.41;5173526;27;20042;-86
2022/06/08 04:09:38;;;;;;;5.95;4.18;;;;;;;13.99;100.00;92724.28;5173185;27;20541;-86
2022/06/08 04:12:06;;;;;;;5.95;4.30;;;;;;;14.09;100.00;92730.56;5173165;27;20400;-86
2022/06/08 04:14:34;;;;;;;6.38;3.72;;;;;;;14.14;100.00;92726.25;5172894;27;20049;-87
2022/06/08 04:17:02;;;;;;;7.20;4.38;;;;;;;14.15;100.00;92716.69;5173366;27;20054;-86
2022/06/08 04:19:29;;;;;;;5.90;4.15;;;;;;;14.16;100.00;92703.53;5173198;27;20042;-85
2022/06/08 04:21:56;;;;;;;5.47;3.90;;;;;;;14.36;100.00;92716.88;5173582;27;20039;-86
2022/06/08 04:24:25;;;;;;;7.00;4.00;;;;;;;14.48;100.00;92720.09;5172886;27;20049;-86
2022/06/08 04:26:52;;;;;;;9.73;4.13;;;;;;;14.60;100.00;92724.31;5172787;27;20544;-86
2022/06/08 04:29:19;;;;;;;8.32;4.20;;;;;;;14.71;100.00;92723.38;5172778;27;20070;-86
2022/06/08 04:31:48;;;;;;;5.47;3.95;;;;;;;14.78;100.00;92721.41;5172973;27;20038;-86
2022/06/08 04:34:15;;;;;;;6.53;4.07;;;;;;;14.80;100.00;92715.97;5172889;27;20102;-86
2022/06/08 04:36:43;;;;;;;6.45;4.35;;;;;;;14.81;100.00;92714.94;5171504;27;20392;-85
2022/06/08 04:39:12;;;;;;;5.82;4.38;;;;;;;14.98;100.00;92722.56;5172688;27;20042;-85
2022/06/08 04:41:40;;;;;;;7.50;4.20;;;;;;;15.09;100.00;92721.59;5172872;27;20137;-86
2022/06/08 04:44:08;;;;;;;7.20;4.38;;;;;;;15.19;100.00;92720.09;5172326;27;20046;-86
2022/06/08 04:46:34;;;;;;;6.38;4.35;;;;;;;15.25;100.00;92716.50;5172637;27;20042;-88
2022/06/08 04:49:03;;;;;;;6.63;4.70;;;;;;;15.32;100.00;92724.81;5172400;27;20488;-86
2022/06/08 04:51:30;;;;;;;6.53;4.90;;;;;;;15.43;100.00;92723.06;5170687;27;20042;-86
2022/06/08 04:53:59;;;;;;;7.35;4.75;;;;;;;15.61;100.00;92731.44;5172236;27;20437;-86
2022/06/08 04:56:25;;;;;;;5.55;4.50;;;;;;;15.71;100.00;92720.34;5172359;27;20039;-86
2022/06/08 04:58:54;;;;;;;8.23;4.63;;;;;;;15.95;100.00;92732.88;5172457;27;20483;-86
2022/06/08 05:01:21;;;;;;;7.40;4.20;;;;;;;15.97;100.00;92729.00;5172415;27;20106;-86
2022/06/08 05:03:48;;;;;;;5.18;4.10;;;;;;;16.07;100.00;92724.88;5172305;27;20054;-86
2022/06/08 05:06:16;;;;;;;7.05;4.32;;;;;;;16.14;100.00;92717.63;5172106;27;20041;-86
2022/06/08 05:08:43;;;;;;;7.85;4.70;;;;;;;16.38;100.00;92730.91;5172121;27;20069;-87
2022/06/08 05:11:10;;;;;;;7.47;4.78;;;;;;;16.46;100.00;92710.69;5168165;27;20042;-86
2022/06/08 05:13:37;;;;;;;8.38;4.53;;;;;;;16.64;100.00;92724.97;5172183;27;20492;-86
2022/06/08 05:16:05;;;;;;;9.27;4.30;;;;;;;16.75;100.00;92726.50;5172217;27;20399;-87
2022/06/08 05:18:32;;;;;;;5.93;4.35;;;;;;;16.91;99.34;92729.91;5170071;27;20086;-87
2022/06/08 05:20:59;;;;;;;10.20;5.18;;;;;;;16.99;98.86;92738.19;5171865;27;20046;-86
2022/06/08 05:23:31;;;;;;;9.77;6.07;;;;;;;17.05;99.06;92722.38;5173539;27;20195;-88
2022/06/08 05:25:59;;;;;;;7.15;5.03;;;;;;;17.26;97.44;92727.53;5171820;27;20133;-87
2022/06/08 05:28:26;;;;;;;9.50;6.18;;;;;;;17.42;96.70;92736.06;5172241;27;20090;-88
2022/06/08 05:30:54;;;;;;;10.52;5.93;;;;;;;17.48;95.84;92742.81;5172061;27;20050;-88
2022/06/08 05:33:21;;;;;;;11.07;5.93;;;;;;;17.51;96.23;92744.09;5170099;27;20050;-88
2022/06/08 05:35:50;;;;;;;9.38;5.70;;;;;;;17.76;96.45;92745.03;5172910;27;20053;-87
2022/06/08 05:38:17;;;;;;;14.93;7.22;;;;;;;17.99;96.13;92743.66;5172985;27;20041;-86
2022/06/08 05:40:45;;;;;;;15.95;7.57;;;;;;;18.10;92.92;92741.03;5173050;27;20103;-89
2022/06/08 05:43:14;;;;;;;15.60;6.50;;;;;;;18.15;91.70;92754.78;5172357;27;20101;-89
2022/06/08 05:45:42;;;;;;;12.63;7.30;;;;;;;18.23;91.18;92758.63;5170304;27;20041;-87
2022/06/08 05:48:09;;;;;;;17.23;8.63;;;;;;;17.80;93.99;92753.88;5169644;27;20087;-85
2022/06/08 05:50:37;;;;;;;24.42;9.45;;;;;;;17.75;97.57;92749.47;5171686;27;20380;-89
2022/06/08 05:53:05;;;;;;;18.77;8.02;;;;;;;17.64;98.22;92753.16;5171723;27;20049;-88
2022/06/08 05:55:34;;;;;;;15.52;8.02;;;;;;;17.79;98.39;92752.31;5171768;27;20074;-88
2022/06/08 05:58:02;;;;;;;17.00;7.45;;;;;;;18.11;96.99;92756.38;5176074;27;20088;-87
2022/06/08 06:00:31;;;;;;;22.27;8.10;;;;;;;18.56;95.93;92752.97;5176279;27;20153;-89
2022/06/08 06:02:59;;;;;;;19.92;8.82;;;;;;;18.78;93.54;92736.19;5174833;27;20046;-88
2022/06/08 06:05:34;;;;;;;19.55;8.55;;;;;;;18.76;91.64;92743.50;5173813;27;20041;-89
2022/06/08 06:08:01;;;;;;;18.27;7.68;;;;;;;18.75;88.53;92755.72;5174661;27;20106;-89
2022/06/08 06:10:29;;;;;;;15.80;8.45;;;;;;;18.98;88.04;92747.47;5173708;27;20556;-88
2022/06/08 06:12:56;;;;;;;16.58;7.72;;;;;;;19.16;87.62;92751.28;5175469;27;20042;-90
2022/06/08 06:15:30;;;;;;;16.73;7.90;;;;;;;19.40;86.67;92733.06;5176239;27;20705;-89
2022/06/08 06:17:57;;;;;;;19.63;8.55;;;;;;;19.59;86.64;92746.13;5176212;27;20408;-90
2022/06/08 06:20:23;;;;;;;18.45;8.80;;;;;;;19.30;86.97;92738.38;5175600;27;20061;-89
2022/06/08 06:22:53;;;;;;;16.27;8.38;;;;;;;19.65;86.14;92739.06;5175366;27;20054;-89
2022/06/08 06:25:20;;;;;;;20.27;8.82;;;;;;;19.74;82.94;92708.75;5175561;27;20038;-87
2022/06/08 06:27:47;;;;;;;12.40;7.10;;;;;;;19.72;84.41;92731.66;5173518;27;20484;-87
2022/06/08 06:30:15;;;;;;;13.68;5.82;;;;;;;19.76;83.34;92737.88;5175441;27;20046;-87
2022/06/08 06:32:45;;;;;;;13.52;6.20;;;;;;;20.50;81.80;92738.53;5175136;27;20054;-87
2022/06/08 06:35:17;;;;;;;15.05;6.13;;;;;;;20.39;79.14;92734.53;5175336;27;20038;-88
2022/06/08 06:37:44;;;;;;;10.25;6.00;;;;;;;20.67;77.21;92726.81;5175091;27;20087;-86
2022/06/08 06:40:12;;;;;;;10.00;5.13;;;;;;;21.20;75.96;92728.34;5174896;27;20050;-86
2022/06/08 06:42:39;;;;;;;7.07;4.68;;;;;;;21.16;68.86;92722.13;5175342;27;20042;-87
2022/06/08 06:45:19;;;;;;;;;;;;;;;;;;;;;
2022/06/08 06:47:50;;;;;;;7.75;4.03;;;;;;;21.71;70.38;92723.28;5174329;27;20049;-87
2022/06/08 06:50:17;;;;;;;7.47;4.07;;;;;;;22.22;69.31;92723.28;5175451;27;20038;-87
2022/06/08 06:52:46;;;;;;;7.35;3.78;;;;;;;22.75;66.66;92725.56;5174823;27;20046;-87
2022/06/08 06:55:19;;;;;;;5.75;3.35;;;;;;;23.08;67.15;92730.56;5175621;27;20046;-87
2022/06/08 06:57:46;;;;;;;5.85;3.60;;;;;;;23.61;65.24;92726.34;5173663;27;20046;-86
2022/06/08 07:00:16;;;;;;;10.68;3.88;;;;;;;24.10;60.79;92728.22;5174243;27;20079;-89
2022/06/08 07:02:43;;;;;;;6.82;4.05;;;;;;;24.30;61.04;92728.69;5173289;27;20125;-88
2022/06/08 07:05:16;;;;;;;8.82;4.00;;;;;;;24.62;58.49;92715.44;5174491;27;20080;-88
2022/06/08 07:07:44;;;;;;;10.10;4.30;;;;;;;24.58;60.35;92730.25;5172096;27;20046;-85
2022/06/08 07:10:11;;;;;;;12.02;5.45;;;;;;;25.00;59.49;92720.06;5172482;27;20042;-87
2022/06/08 07:12:37;;;;;;;14.88;6.90;;;;;;;25.25;56.34;92724.75;5174454;27;20165;-88
2022/06/08 07:15:05;;;;;;;10.68;5.50;;;;;;;24.62;57.91;92728.56;5174350;27;20050;-89
2022/06/08 07:17:32;;;;;;;10.80;5.57;;;;;;;24.09;57.92;92731.13;5174375;27;20034;-91
2022/06/08 07:19:59;;;;;;;12.55;6.25;;;;;;;23.75;58.26;92700.03;5172695;27;20102;-90
2022/06/08 07:22:27;;;;;;;9.40;5.30;;;;;;;24.17;60.42;92724.34;5174047;27;20041;-88
2022/06/08 07:24:54;;;;;;;11.50;4.75;;;;;;;23.92;59.90;92716.88;5173996;27;20043;-90
2022/06/08 07:27:22;;;;;;;10.30;5.28;;;;;;;23.30;60.61;92719.28;5174244;27;20083;-89
2022/06/08 07:29:49;;;;;;;9.32;4.80;;;;;;;23.17;61.42;92720.13;5174125;27;20510;-90
2022/06/08 07:32:16;;;;;;;7.28;4.35;;;;;;;23.44;63.20;92713.97;5172075;27;20376;-89
2022/06/08 07:34:44;;;;;;;5.97;3.55;;;;;;;22.93;60.28;92731.72;5173952;27;20094;-90
2022/06/08 07:37:11;;;;;;;8.93;4.35;;;;;;;22.43;61.68;92684.41;5174579;27;20046;-89
2022/06/08 07:39:40;;;;;;;9.73;4.18;;;;;;;23.16;61.26;92718.59;5174190;27;20090;-87
2022/06/08 07:42:07;;;;;;;7.78;4.13;;;;;;;23.54;62.33;92720.78;5173838;27;20069;-85
2022/06/08 07:44:34;;;;;;;14.27;4.57;;;;;;;23.91;59.42;92722.41;5173879;27;20045;-87
2022/06/08 07:47:01;;;;;;;12.82;4.65;;;;;;;24.11;58.98;92674.66;5171706;27;20047;-88
2022/06/08 07:49:39;;;;;;;12.60;5.97;;;;;;;24.29;55.42;92714.81;5173625;27;20082;-88
2022/06/08 07:52:10;;;;;;;14.35;6.00;;;;;;;24.09;56.58;92731.91;5172384;27;20038;-90
2022/06/08 07:54:40;;;;;;;16.45;6.53;;;;;;;23.63;58.02;92718.19;5172527;27;20046;-88
2022/06/08 07:57:09;;;;;;;13.35;4.50;;;;;;;23.59;60.39;92728.50;5173622;27;20042;-88
2022/06/08 07:59:37;;;;;;;19.48;6.13;;;;;;;23.31;60.52;92726.09;5173681;27;20049;-90
2022/06/08 08:02:05;;;;;;;24.02;7.40;;;;;;;22.71;61.32;92707.06;5173898;27;20042;-90
2022/06/08 08:04:31;;;;;;;25.58;7.07;;;;;;;23.35;62.81;92724.41;5171642;27;20038;-88
2022/06/08 08:07:00;;;;;;;17.63;6.03;;;;;;;22.48;63.88;92722.75;5170545;27;20046;-88
2022/06/08 08:09:27;;;;;;;18.52;5.47;;;;;;;22.80;61.99;92710.53;5173261;27;20477;-89
2022/06/08 08:11:55;;;;;;;20.35;6.28;;;;;;;23.45;64.57;92712.09;5169103;27;20483;-87
2022/06/08 08:14:24;;;;;;;14.90;5.50;;;;;;;24.07;62.56;92705.16;5172817;27;20535;-86
2022/06/08 08:16:51;;;;;;;12.63;5.07;;;;;;;24.37;62.09;92708.03;5171483;27;20054;-89
2022/06/08 08:19:22;;;;;;;11.02;4.82;;;;;;;24.78;60.84;92705.22;5166910;27;20091;-87
2022/06/08 08:21:49;;;;;;;13.23;5.07;;;;;;;25.20;59.53;92692.31;5169663;27;20042;-84
2022/06/08 08:24:17;;;;;;;9.68;4.70;;;;;;;25.63;58.64;92689.84;5171805;27;20091;-86
2022/06/08 08:26:46;;;;;;;10.93;4.65;;;;;;;26.02;57.95;92689.81;5169383;27;20053;-86
2022/06/08 08:29:14;;;;;;;10.95;5.07;;;;;;;26.48;55.04;92700.47;5172213;27;20613;-87
2022/06/08 08:31:41;;;;;;;14.07;4.95;;;;;;;26.75;54.46;92697.63;5170586;27;20484;-87
2022/06/08 08:34:09;;;;;;;11.20;5.20;;;;;;;27.19;53.51;92689.31;5172122;27;20046;-85
2022/06/08 08:36:36;;;;;;;15.52;5.78;;;;;;;27.28;51.45;92653.09;5169690;27;20052;-85
2022/06/08 08:39:04;;;;;;;13.10;5.20;;;;;;;27.69;50.35;92663.78;5170137;27;20087;-85
2022/06/08 08:44:36;;;;;;;11.25;5.15;;;;;;;28.45;49.56;92685.53;5155131;27;20046;-86
2022/06/08 08:47:14;;;;;;;14.10;5.05;;;;;;;28.76;49.14;92678.81;5171428;27;20121;-86
2022/06/08 08:49:48;;;;;;;11.45;4.32;;;;;;;28.94;47.56;92679.28;5170225;27;20034;-87
2022/06/08 08:52:24;;;;;;;12.48;5.22;;;;;;;29.03;46.96;92679.91;5168094;27;20441;-84
2022/06/08 08:54:58;;;;;;;10.00;4.35;;;;;;;29.11;44.58;92677.44;5170798;27;20046;-87
2022/06/08 08:57:31;;;;;;;10.15;5.22;;;;;;;29.41;44.95;92669.84;5170424;27;20081;-86
2022/06/08 09:00:02;;;;;;;8.35;4.10;;;;;;;29.55;45.97;92671.31;5170263;27;20068;-85
2022/06/08 09:05:17;;;;;;;11.15;4.05;;;;;;;29.93;44.95;92672.53;5171355;27;20060;-85
2022/06/08 09:07:45;;;;;;;6.30;3.42;;;;;;;30.11;43.41;92667.66;5171059;27;20442;-87
2022/06/08 09:10:17;;;;;;;9.23;3.50;;;;;;;30.25;44.56;92663.75;5171970;27;20074;-86
2022/06/08 09:12:44;;;;;;;5.95;3.95;;;;;;;30.48;43.34;92666.50;5171112;27;20048;-86
2022/06/08 09:15:15;;;;;;;5.10;3.35;;;;;;;30.35;43.24;92654.47;5167071;27;20134;-87
2022/06/08 09:17:52;;;;;;;5.38;3.35;;;;;;;30.11;43.51;92651.00;5166700;27;20042;-85
2022/06/08 09:20:27;;;;;;;7.55;3.45;;;;;;;30.24;43.97;92636.50;5171141;27;20129;-85
2022/06/08 09:22:56;;;;;;;4.78;3.50;;;;;;;30.44;40.29;92659.59;5171681;27;20046;-87
2022/06/08 09:25:30;;;;;;;6.88;3.88;;;;;;;28.87;43.21;92658.72;5172142;27;20046;-90
2022/06/08 09:27:58;;;;;;;5.82;4.10;;;;;;;29.07;46.05;92649.03;5172100;27;20046;-87
2022/06/08 09:30:30;;;;;;;6.97;3.28;;;;;;;28.90;43.90;92623.69;5171817;27;20038;-87
2022/06/08 09:32:59;;;;;;;4.43;3.22;;;;;;;29.03;44.67;92648.19;5171392;27;20042;-87
2022/06/08 09:35:31;;;;;;;5.85;3.47;;;;;;;29.35;44.95;92647.41;5171421;27;20053;-89
2022/06/08 09:38:03;;;;;;;5.55;3.15;;;;;;;29.58;45.11;92638.88;5172208;27;20094;-87
2022/06/08 09:40:38;;;;;;;6.30;3.45;;;;;;;29.90;42.79;92640.69;5171790;27;20133;-88
2022/06/08 09:43:26;;;;;;;5.63;3.33;;;;;;;29.97;44.58;92617.00;5170417;27;20493;-89
2022/06/08 09:46:00;;;;;;;6.32;4.18;;;;;;;29.83;44.77;92639.44;5170785;27;20065;-88
2022/06/08 09:52:00;;;;;;;7.20;4.00;;;;;;;30.80;44.45;92629.25;5136225;27;20046;-86
2022/06/08 09:54:41;;;;;;;4.47;3.45;;;;;;;31.07;41.74;92620.59;5106381;28;20043;-87
2022/06/08 09:57:24;;;;;;;6.03;4.13;;;;;;;31.23;42.75;92612.47;5161504;27;20050;-84
2022/06/08 10:00:05;;;;;;;6.07;3.88;;;;;;;31.50;41.33;92623.16;5169904;27;20057;-89
2022/06/08 10:02:41;;;;;;;4.32;3.10;;;;;;;31.08;41.43;92614.16;5171703;27;20468;-88
2022/06/08 10:05:23;;;;;;;4.63;3.50;;;;;;;31.52;42.55;92610.28;5168162;27;20082;-87
2022/06/08 10:08:06;;;;;;;5.35;3.38;;;;;;;31.72;41.54;92612.84;5169589;27;20559;-86
2022/06/08 10:10:40;;;;;;;4.72;3.50;;;;;;;31.85;40.77;92606.22;5168659;27;20118;-88
2022/06/08 10:13:18;;;;;;;4.07;3.40;;;;;;;31.90;39.91;92613.13;5169451;27;20046;-89
2022/06/08 10:15:49;;;;;;;4.18;3.00;;;;;;;31.60;41.25;92611.94;5170619;27;20070;-85
2022/06/08 10:18:25;;;;;;;5.32;3.50;;;;;;;31.74;40.79;92607.94;5171595;27;20090;-86
2022/06/08 10:21:02;;;;;;;6.50;3.53;;;;;;;31.73;37.88;92601.88;5171382;27;20042;-88
2022/06/08 10:23:35;;;;;;;5.35;3.72;;;;;;;31.48;39.03;92608.72;5170207;27;20051;-88
2022/06/08 10:26:04;;;;;;;8.20;3.53;;;;;;;31.41;39.06;92604.06;5171553;27;20042;-87
2022/06/08 10:28:39;;;;;;;7.22;3.50;;;;;;;31.40;38.69;92591.91;5171432;27;20433;-88
2022/06/08 10:31:13;;;;;;;4.80;3.60;;;;;;;31.31;40.60;92595.59;5168664;27;20156;-86
2022/06/08 10:33:46;;;;;;;4.88;3.92;;;;;;;31.14;39.23;92596.81;5169377;27;20125;-88
2022/06/08 10:36:14;;;;;;;7.22;4.10;;;;;;;30.81;39.99;92592.88;5169804;27;20050;-86
2022/06/08 10:38:46;;;;;;;5.57;3.85;;;;;;;30.62;40.84;92591.00;5169343;27;20050;-88
2022/06/08 10:44:48;;;;;;;8.68;3.92;;;;;;;30.40;41.84;92595.91;5172215;27;20166;-86
2022/06/08 10:47:26;;;;;;;8.00;4.07;;;;;;;30.40;42.11;92588.75;5167467;27;20460;-84
2022/06/08 10:50:11;;;;;;;5.53;4.18;;;;;;;30.27;42.02;92595.31;5170308;27;20137;-87
2022/06/08 10:52:43;;;;;;;6.50;4.20;;;;;;;30.24;42.39;92596.00;5163916;27;20072;-86
2022/06/08 10:55:37;;;;;;;6.20;3.97;;;;;;;30.12;42.79;92591.59;5164779;27;20053;-85
2022/06/08 10:58:13;;;;;;;7.20;4.68;;;;;;;29.97;42.50;92599.25;5157988;27;20489;-88
2022/06/08 11:01:16;;;;;;;6.45;4.03;;;;;;;29.91;43.65;92591.94;5169155;27;20043;-86
2022/06/08 11:03:54;;;;;;;9.00;4.55;;;;;;;29.45;43.66;92577.34;5162517;27;20072;-87
2022/06/08 11:07:03;;;;;;;7.50;3.72;;;;;;;29.41;43.10;92593.13;5170805;27;20045;-88
2022/06/08 11:09:57;;;;;;;11.32;5.30;;;;;;;29.31;44.92;92594.44;5172428;27;20129;-88
2022/06/08 11:12:32;;;;;;;11.63;4.70;;;;;;;28.66;46.35;92582.28;5171787;27;20042;-85
2022/06/08 11:15:02;;;;;;;10.48;6.05;;;;;;;28.39;45.48;92595.97;5172615;27;20062;-88
2022/06/08 11:17:33;;;;;;;8.52;5.40;;;;;;;28.22;46.03;92594.34;5172340;27;20081;-88
2022/06/08 11:20:13;;;;;;;7.40;5.30;;;;;;;28.31;46.72;92581.03;5172696;27;20038;-87
2022/06/08 11:22:44;;;;;;;13.07;6.05;;;;;;;28.27;48.75;92577.53;5174565;27;20050;-86
2022/06/08 11:25:18;;;;;;;7.18;5.30;;;;;;;28.11;49.29;92578.22;5176013;27;20041;-88
2022/06/08 11:27:45;;;;;;;6.28;5.18;;;;;;;27.85;50.46;92581.28;5173164;27;20046;-87
2022/06/08 11:30:45;;;;;;;8.60;5.70;;;;;;;27.47;52.45;92581.31;5168607;27;20046;-86
2022/06/08 11:33:19;;;;;;;7.30;5.18;;;;;;;27.15;52.48;92580.34;5174620;27;20121;-87
2022/06/08 11:36:17;;;;;;;13.63;5.85;;;;;;;27.10;53.17;92576.06;5172611;27;20117;-88
2022/06/08 11:39:04;;;;;;;9.80;6.78;;;;;;;26.39;57.00;92579.44;5172650;27;20126;-85
2022/06/08 11:41:38;;;;;;;8.05;6.25;;;;;;;25.78;59.83;92580.69;5172120;27;20078;-87
2022/06/08 11:44:16;;;;;;;8.98;6.80;;;;;;;25.61;59.39;92576.31;5172677;27;20641;-84
2022/06/08 11:46:48;;;;;;;8.43;5.65;;;;;;;25.49;58.75;92571.72;5179055;27;20129;-88
2022/06/08 11:49:37;;;;;;;10.15;5.95;;;;;;;25.61;59.70;92571.81;5171930;27;20050;-88
2022/06/08 11:52:26;;;;;;;8.00;5.93;;;;;;;25.43;58.86;92568.53;5172273;27;20045;-88
2022/06/08 11:55:08;;;;;;;12.25;6.10;;;;;;;25.64;61.26;92565.16;5171970;27;20098;-87
2022/06/08 11:57:39;;;;;;;14.90;7.03;;;;;;;25.45;61.46;92550.56;5173365;27;20133;-88
2022/06/08 12:00:19;;;;;;;8.68;5.95;;;;;;;25.31;64.69;92550.81;5171868;27;20091;-87
2022/06/08 12:02:50;;;;;;;8.10;6.07;;;;;;;25.18;63.86;92554.44;5173037;27;20077;-89